Time;durP1;ratioP1;P1;durP2;ratioP2;P2;SDS_P1;SDS_P2;PMS_P1;PMS_P2;Temp;Humidity;BMP_temperature;BMP_pressure;BME280_temperature;BME280_humidity;BME280_pressure;Samples;Min_cycle;Max_cycle;Signal;HPM_P1;HPM_P2
2022/07/31 00:05:49;;;;;;;1.08;0.57;;;20.00;99.90;;;;;;20640444;28;20054;-40
2022/07/31 00:15:50;;;;;;;0.85;0.38;;;19.90;99.90;;;;;;20651234;28;20030;-41
2022/07/31 00:25:51;;;;;;;1.05;0.30;;;19.80;99.90;;;;;;20601508;28;20046;-40
2022/07/31 00:35:52;;;;;;;0.68;0.20;;;19.70;99.90;;;;;;20652297;28;20034;-40
2022/07/31 00:45:53;;;;;;;1.00;0.45;;;19.70;99.90;;;;;;20642200;28;20042;-38
2022/07/31 00:55:56;;;;;;;2.13;0.50;;;19.70;99.90;;;;;;20588281;28;20034;-40
2022/07/31 01:05:57;;;;;;;0.47;0.20;;;19.60;99.90;;;;;;20641954;28;20437;-39
2022/07/31 01:15:59;;;;;;;1.17;0.35;;;19.50;99.90;;;;;;20653094;28;20109;-39
2022/07/31 01:26:30;;;;;;;1.00;0.50;;;19.40;99.90;;;;;;20619048;28;20099;-39
2022/07/31 01:36:35;;;;;;;1.08;0.52;;;19.40;99.90;;;;;;20649134;28;21888;-40
2022/07/31 01:46:39;;;;;;;1.55;0.57;;;19.30;99.90;;;;;;20656928;28;20453;-39
2022/07/31 01:56:40;;;;;;;1.52;0.60;;;19.20;99.90;;;;;;20603552;28;20050;-39
2022/07/31 02:06:45;;;;;;;1.80;0.80;;;19.20;99.90;;;;;;20650793;28;20076;-39
2022/07/31 02:16:47;;;;;;;2.13;0.80;;;19.20;99.90;;;;;;20649926;28;20097;-40
2022/07/31 02:26:48;;;;;;;3.05;1.38;;;19.20;99.90;;;;;;20648768;28;20078;-39
2022/07/31 02:36:52;;;;;;;2.40;1.10;;;19.20;99.90;;;;;;21225028;22;20044;-40
2022/07/31 02:46:54;;;;;;;2.85;1.10;;;19.20;99.90;;;;;;20921769;28;20118;-39
2022/07/31 02:56:56;;;;;;;1.80;1.00;;;19.10;99.90;;;;;;20925837;28;20492;-39
2022/07/31 03:06:59;;;;;;;2.80;1.38;;;19.20;99.90;;;;;;20924351;28;20036;-39
2022/07/31 03:17:01;;;;;;;2.13;1.20;;;19.20;99.90;;;;;;20926354;28;20040;-39
2022/07/31 03:27:02;;;;;;;3.05;1.35;;;19.20;99.90;;;;;;20917636;28;20392;-41
2022/07/31 03:37:03;;;;;;;4.45;1.23;;;19.20;99.90;;;;;;20873865;28;20052;-40
2022/07/31 03:47:04;;;;;;;3.67;1.38;;;19.20;99.90;;;;;;20838110;28;20037;-39
2022/07/31 03:57:08;;;;;;;6.10;2.22;;;19.20;99.90;;;;;;20834649;28;20080;-40
2022/07/31 04:07:09;;;;;;;2.75;1.55;;;19.20;99.90;;;;;;20830176;28;20040;-40
2022/07/31 04:17:10;;;;;;;2.22;0.98;;;19.20;99.90;;;;;;20834557;28;20038;-41
2022/07/31 04:27:15;;;;;;;3.78;0.80;;;19.10;99.90;;;;;;20836117;28;20782;-40
2022/07/31 04:37:16;;;;;;;2.95;1.10;;;19.10;99.90;;;;;;20839913;28;20044;-40
2022/07/31 04:47:17;;;;;;;1.60;0.77;;;19.10;99.90;;;;;;20841490;28;20526;-40
2022/07/31 04:57:18;;;;;;;2.05;0.95;;;19.00;99.90;;;;;;20842952;28;20091;-39
2022/07/31 05:07:19;;;;;;;2.17;1.13;;;19.10;99.90;;;;;;20855750;28;20037;-39
2022/07/31 05:17:20;;;;;;;5.70;1.00;;;19.00;99.90;;;;;;20873419;28;20439;-39
2022/07/31 05:27:21;;;;;;;4.25;1.48;;;19.00;99.90;;;;;;20851090;28;20037;-39
2022/07/31 05:37:22;;;;;;;2.15;0.93;;;19.00;99.90;;;;;;20850597;28;20045;-40
2022/07/31 05:47:23;;;;;;;2.30;0.85;;;19.10;99.90;;;;;;20828334;28;20501;-39
2022/07/31 05:57:24;;;;;;;5.60;1.88;;;19.10;99.90;;;;;;20851775;28;20865;-39
2022/07/31 06:07:25;;;;;;;3.88;1.92;;;19.10;99.90;;;;;;20868953;28;20861;-40
2022/07/31 06:17:26;;;;;;;4.38;2.33;;;19.10;99.90;;;;;;20850875;28;20445;-40
2022/07/31 06:27:27;;;;;;;4.15;1.80;;;19.20;99.90;;;;;;20848240;28;20525;-40
2022/07/31 06:37:28;;;;;;;3.90;2.10;;;19.40;99.90;;;;;;20837307;28;20049;-40
2022/07/31 06:47:29;;;;;;;9.60;3.80;;;19.40;99.90;;;;;;20838004;28;20103;-39
2022/07/31 06:57:30;;;;;;;6.93;3.70;;;19.60;99.90;;;;;;20834595;28;20045;-39
2022/07/31 07:07:35;;;;;;;6.57;3.42;;;19.80;99.90;;;;;;20843082;28;20029;-39
2022/07/31 07:17:36;;;;;;;8.23;3.97;;;19.90;99.90;;;;;;20851430;28;20098;-39
2022/07/31 07:27:37;;;;;;;13.88;5.53;;;19.90;99.90;;;;;;20819853;28;20041;-40
2022/07/31 07:37:39;;;;;;;7.22;3.60;;;20.00;99.90;;;;;;20827978;28;20045;-41
2022/07/31 07:47:40;;;;;;;12.45;4.63;;;19.90;99.90;;;;;;20456441;28;158478;-40
2022/07/31 07:57:43;;;;;;;13.15;4.45;;;19.90;99.90;;;;;;20673363;28;123975;-40
2022/07/31 08:07:45;;;;;;;9.35;3.83;;;20.00;99.90;;;;;;20844322;28;20122;-40
2022/07/31 08:17:49;;;;;;;8.57;4.82;;;19.80;99.90;;;;;;20844499;28;20049;-40
2022/07/31 08:27:50;;;;;;;9.73;4.57;;;19.30;99.90;;;;;;20844538;28;20041;-40
2022/07/31 08:37:51;;;;;;;11.02;5.25;;;19.20;99.90;;;;;;20831687;28;20048;-40
2022/07/31 08:47:55;;;;;;;10.50;5.15;;;19.50;99.90;;;;;;20815396;22;20053;-86
2022/07/31 08:57:57;;;;;;;8.18;3.80;;;19.70;99.90;;;;;;20692553;28;20034;-84
2022/07/31 09:07:58;;;;;;;8.73;4.32;;;19.80;99.90;;;;;;20701284;28;20045;-85
2022/07/31 09:17:59;;;;;;;7.13;3.58;;;20.00;99.90;;;;;;20697210;28;20041;-84
2022/07/31 09:28:02;;;;;;;6.63;4.00;;;19.90;99.90;;;;;;20677394;28;20041;-82
2022/07/31 09:38:04;;;;;;;7.28;3.78;;;19.80;99.90;;;;;;20618158;28;20030;-85
2022/07/31 09:48:23;;;;;;;10.88;3.53;;;19.90;99.90;;;;;;20576479;28;20038;-84
2022/07/31 09:58:24;;;;;;;5.88;2.92;;;20.00;99.90;;;;;;20613333;28;21224;-86
2022/07/31 10:09:12;;;;;;;7.80;3.17;;;20.10;99.90;;;;;;20590285;28;21202;-85
2022/07/31 10:19:45;;;;;;;9.13;4.63;;;20.40;99.90;;;;;;20546421;28;20769;-84
2022/07/31 10:29:47;;;;;;;10.05;4.47;;;20.10;99.90;;;;;;20609905;28;20038;-84
2022/07/31 10:39:55;;;;;;;9.38;4.05;;;19.80;99.90;;;;;;20643754;28;20038;-84
2022/07/31 10:49:56;;;;;;;6.00;3.13;;;19.80;99.90;;;;;;20666147;28;20096;-85
2022/07/31 11:00:16;;;;;;;6.70;3.50;;;19.90;99.90;;;;;;20692704;28;20042;-86
2022/07/31 11:10:20;;;;;;;7.82;3.38;;;20.00;99.90;;;;;;20653363;28;20486;-86
2022/07/31 11:20:28;;;;;;;6.82;3.28;;;20.00;99.90;;;;;;20677949;28;20038;-84
2022/07/31 11:30:34;;;;;;;6.30;3.65;;;19.90;99.90;;;;;;20654747;28;20042;-83
2022/07/31 11:40:35;;;;;;;4.28;2.17;;;20.00;99.90;;;;;;20815948;22;20063;-41
2022/07/31 11:50:40;;;;;;;4.32;2.50;;;19.90;99.90;;;;;;20843953;28;20901;-41
2022/07/31 12:00:53;;;;;;;4.35;2.22;;;20.00;99.90;;;;;;20834506;28;20487;-41
2022/07/31 12:10:55;;;;;;;4.78;1.92;;;20.10;99.90;;;;;;20809143;28;20037;-40
2022/07/31 12:20:59;;;;;;;3.15;1.10;;;20.40;99.90;;;;;;20833379;28;20061;-40
2022/07/31 12:31:00;;;;;;;6.68;1.98;;;21.20;99.90;;;;;;20791889;28;20055;-40
2022/07/31 12:41:03;;;;;;;4.25;1.52;;;21.30;99.90;;;;;;20820729;28;20090;-39
2022/07/31 12:51:05;;;;;;;2.53;1.20;;;21.30;99.90;;;;;;20822952;28;20056;-38
2022/07/31 13:01:06;;;;;;;2.47;1.25;;;21.20;99.90;;;;;;20850842;28;20099;-39
2022/07/31 13:11:07;;;;;;;2.00;0.85;;;21.40;99.90;;;;;;20835771;28;20395;-39
2022/07/31 13:21:08;;;;;;;3.08;1.27;;;21.20;99.90;;;;;;20864982;28;20462;-39
2022/07/31 13:31:09;;;;;;;2.42;0.90;;;21.20;99.90;;;;;;20868167;28;20463;-39
2022/07/31 13:41:19;;;;;;;2.55;0.88;;;21.00;99.90;;;;;;20867173;28;20037;-38
2022/07/31 13:51:21;;;;;;;6.15;1.00;;;21.10;99.90;;;;;;20824615;28;20878;-38
2022/07/31 14:01:22;;;;;;;2.63;1.10;;;21.20;99.90;;;;;;20855336;28;20045;-38
2022/07/31 14:11:23;;;;;;;2.22;1.15;;;21.20;99.90;;;;;;20844600;28;20584;-38
2022/07/31 14:21:24;;;;;;;2.35;1.10;;;21.20;99.90;;;;;;20850210;28;20041;-38
2022/07/31 14:31:25;;;;;;;1.90;0.88;;;21.10;99.90;;;;;;20826736;28;20032;-38
2022/07/31 14:41:26;;;;;;;4.78;1.08;;;20.90;99.90;;;;;;20843879;28;22058;-38
2022/07/31 14:51:27;;;;;;;2.10;0.82;;;21.10;99.90;;;;;;20824839;28;20737;-38
2022/07/31 15:01:28;;;;;;;4.68;0.82;;;20.70;99.90;;;;;;20834904;28;20079;-38
2022/07/31 15:11:29;;;;;;;2.28;0.80;;;20.20;99.90;;;;;;20834613;28;20060;-38
2022/07/31 15:21:30;;;;;;;2.10;0.90;;;20.20;99.90;;;;;;20852043;28;20040;-37
2022/07/31 15:31:31;;;;;;;1.48;0.65;;;20.10;99.90;;;;;;20823223;28;20127;-39
2022/07/31 15:41:32;;;;;;;2.80;1.27;;;20.30;99.90;;;;;;20864010;28;20056;-38
2022/07/31 15:51:33;;;;;;;9.30;1.83;;;20.50;99.90;;;;;;20879598;28;20040;-39
2022/07/31 16:01:36;;;;;;;3.97;1.88;;;20.40;99.90;;;;;;20882917;28;20041;-39
2022/07/31 16:11:37;;;;;;;4.10;1.77;;;20.40;99.90;;;;;;20838363;28;20937;-38
2022/07/31 16:21:38;;;;;;;5.97;1.42;;;20.50;99.90;;;;;;20824604;28;20040;-38
2022/07/31 16:31:39;;;;;;;2.47;1.20;;;20.60;99.90;;;;;;20819984;28;20650;-38
2022/07/31 16:41:40;;;;;;;2.58;1.48;;;20.40;99.90;;;;;;20814344;28;20509;-38
2022/07/31 16:51:41;;;;;;;3.35;0.95;;;20.30;99.90;;;;;;20819212;28;20127;-39
2022/07/31 17:01:42;;;;;;;4.65;1.35;;;20.30;99.90;;;;;;20826766;28;20052;-38
2022/07/31 17:11:49;;;;;;;3.90;1.38;;;20.40;99.90;;;;;;20820695;28;20056;-39
2022/07/31 17:21:50;;;;;;;3.35;1.15;;;20.40;99.90;;;;;;20821912;28;20120;-39
2022/07/31 17:31:51;;;;;;;2.90;1.27;;;20.20;99.90;;;;;;20825617;28;20079;-39
2022/07/31 17:41:52;;;;;;;2.75;1.00;;;20.20;99.90;;;;;;20821210;28;20056;-39
2022/07/31 17:51:55;;;;;;;4.07;1.77;;;20.10;99.90;;;;;;20831260;28;20048;-38
2022/07/31 18:01:59;;;;;;;5.38;2.47;;;19.80;99.90;;;;;;20836329;28;20121;-39
2022/07/31 18:12:01;;;;;;;3.25;1.95;;;19.60;99.90;;;;;;20823942;28;20393;-39
2022/07/31 18:22:02;;;;;;;3.67;1.73;;;19.50;99.90;;;;;;20829750;28;20123;-38
2022/07/31 18:32:03;;;;;;;4.03;1.85;;;19.50;99.90;;;;;;20829048;28;20123;-38
2022/07/31 18:42:04;;;;;;;5.03;2.05;;;19.60;99.90;;;;;;20836929;28;20784;-39
2022/07/31 18:52:06;;;;;;;4.60;1.30;;;19.60;99.90;;;;;;20841369;28;20150;-38
2022/07/31 19:02:09;;;;;;;16.17;1.92;;;19.60;99.90;;;;;;20823819;28;20496;-38
2022/07/31 19:12:10;;;;;;;3.42;1.27;;;19.70;99.90;;;;;;20777457;28;20512;-39
2022/07/31 19:22:12;;;;;;;5.07;2.03;;;19.60;99.90;;;;;;20811269;28;20124;-39
2022/07/31 19:32:13;;;;;;;3.78;1.42;;;19.60;99.90;;;;;;20818786;28;20158;-38
2022/07/31 19:42:14;;;;;;;10.80;2.58;;;19.60;99.90;;;;;;20814502;28;20567;-38
2022/07/31 19:52:15;;;;;;;5.15;2.17;;;19.60;99.90;;;;;;20822619;28;20852;-39
2022/07/31 20:02:16;;;;;;;4.25;1.30;;;19.70;99.90;;;;;;20812831;28;20877;-39
2022/07/31 20:12:17;;;;;;;2.72;1.27;;;19.60;99.90;;;;;;20814541;28;20424;-38
2022/07/31 20:22:18;;;;;;;3.60;1.25;;;19.60;99.90;;;;;;20826952;28;20079;-39
2022/07/31 20:32:19;;;;;;;5.03;1.33;;;19.60;99.90;;;;;;20812624;28;20119;-39
2022/07/31 20:42:21;;;;;;;9.00;1.50;;;19.60;99.90;;;;;;20807135;28;20090;-39
2022/07/31 20:52:22;;;;;;;7.50;1.70;;;19.60;99.90;;;;;;20832403;28;20102;-39
2022/07/31 21:02:25;;;;;;;3.97;1.52;;;19.60;99.90;;;;;;20846098;28;20056;-39
2022/07/31 21:12:26;;;;;;;1.95;1.10;;;19.60;99.90;;;;;;20841666;28;20087;-39
2022/07/31 21:22:27;;;;;;;2.33;1.15;;;19.50;99.90;;;;;;20850726;28;20037;-38
2022/07/31 21:32:28;;;;;;;3.45;1.05;;;19.40;99.90;;;;;;20860155;28;20033;-39
2022/07/31 21:42:29;;;;;;;4.93;2.25;;;19.30;99.90;;;;;;20856400;28;20036;-38
2022/07/31 21:52:31;;;;;;;2.78;1.63;;;19.30;99.90;;;;;;20844397;28;20079;-39
2022/07/31 22:02:32;;;;;;;4.10;1.00;;;19.20;99.90;;;;;;20843426;28;20069;-39
2022/07/31 22:12:33;;;;;;;1.35;0.80;;;19.10;99.90;;;;;;20845494;28;20188;-39
2022/07/31 22:22:35;;;;;;;1.95;0.98;;;19.10;99.90;;;;;;20842845;28;20142;-38
2022/07/31 22:32:37;;;;;;;2.67;0.77;;;19.10;99.90;;;;;;20841971;28;20118;-38
2022/07/31 22:42:39;;;;;;;1.00;0.35;;;19.00;99.90;;;;;;20837173;28;20112;-39
2022/07/31 22:52:41;;;;;;;1.10;0.38;;;18.90;99.90;;;;;;20830108;28;20120;-38
2022/07/31 23:02:42;;;;;;;1.80;0.90;;;18.90;99.90;;;;;;20814493;28;20210;-38
2022/07/31 23:12:43;;;;;;;1.08;0.50;;;18.90;99.90;;;;;;20825952;28;20090;-38
2022/07/31 23:22:45;;;;;;;0.93;0.60;;;18.90;99.90;;;;;;20823040;28;20579;-39
2022/07/31 23:32:46;;;;;;;1.65;0.60;;;18.80;99.90;;;;;;20831084;28;20506;-39
2022/07/31 23:42:47;;;;;;;2.55;1.13;;;18.80;99.90;;;;;;20820051;28;21175;-38
2022/07/31 23:52:48;;;;;;;1.77;0.75;;;18.90;99.90;;;;;;20822699;28;20140;-39
